| time (UTC) | temp C | wind direction | speed KPH | gust KPH | rain 1hr cm | rain 24hr cm | rain mn cm | humidity % | barometer mb |
| 20260507085426 | 10 | 187 | 1.6 | 4.8 | 0.00 | 0.00 | 0.00 | 89 | 1021.0 |
| 20260507084927 | 10 | 220 | 1.6 | 3.2 | 0.00 | 0.00 | 0.00 | 89 | 1021.0 |
| 20260507084426 | 10 | 350 | 0.0 | 1.6 | 0.00 | 0.00 | 0.00 | 89 | 1021.0 |
| 20260507083926 | 10 | 213 | 1.6 | 3.2 | 0.00 | 0.00 | 0.00 | 89 | 1021.0 |
| 20260507083427 | 10 | 161 | 3.2 | 4.8 | 0.00 | 0.00 | 0.00 | 89 | 1021.0 |
| 20260507082927 | 10 | 166 | 3.2 | 3.2 | 0.00 | 0.00 | 0.00 | 89 | 1021.0 |
| 20260507082426 | 10 | 209 | 1.6 | 3.2 | 0.00 | 0.00 | 0.00 | 89 | 1021.0 |
| 20260507081926 | 10 | 225 | 0.0 | 1.6 | 0.00 | 0.00 | 0.00 | 89 | 1021.0 |
| 20260507081426 | 10 | 177 | 3.2 | 4.8 | 0.00 | 0.00 | 0.00 | 89 | 1021.0 |
| 20260507080926 | 10 | 196 | 3.2 | 6.4 | 0.00 | 0.00 | 0.00 | 89 | 1021.0 |
| 20260507080427 | 10 | 197 | 3.2 | 6.4 | 0.00 | 0.00 | 0.00 | 89 | 1021.0 |
| 20260507075927 | 10 | 195 | 1.6 | 3.2 | 0.00 | 0.00 | 0.00 | 89 | 1021.0 |
| 20260507075427 | 10 | 219 | 1.6 | 3.2 | 0.00 | 0.00 | 0.00 | 89 | 1021.0 |
| 20260507074928 | 10 | 193 | 1.6 | 3.2 | 0.00 | 0.00 | 0.00 | 89 | 1021.0 |
| 20260507074426 | 10 | 166 | 0.0 | 1.6 | 0.00 | 0.00 | 0.00 | 89 | 1021.0 |
| 20260507073927 | 10 | 194 | 1.6 | 3.2 | 0.00 | 0.00 | 0.00 | 89 | 1021.0 |
| 20260507073431 | 10 | 293 | 1.6 | 1.6 | 0.00 | 0.00 | 0.00 | 90 | 1021.0 |
| 20260507072926 | 10 | 348 | 0.0 | 1.6 | 0.00 | 0.00 | 0.00 | 90 | 1021.0 |
| 20260507072430 | 10 | 0 | 0.0 | 0.0 | 0.00 | 0.00 | 0.00 | 90 | 1021.0 |
| 20260507071929 | 10 | 61 | 0.0 | 1.6 | 0.00 | 0.00 | 0.00 | 90 | 1021.0 |
| 20260507071426 | 10 | 305 | 1.6 | 4.8 | 0.00 | 0.00 | 0.00 | 90 | 1021.0 |
| 20260507070926 | 10 | 169 | 3.2 | 4.8 | 0.00 | 0.00 | 0.00 | 90 | 1021.0 |
| 20260507070426 | 11 | 196 | 3.2 | 6.4 | 0.00 | 0.00 | 0.00 | 90 | 1021.0 |
| 20260507065926 | 11 | 173 | 4.8 | 6.4 | 0.00 | 0.00 | 0.00 | 90 | 1021.0 |
| 20260507065429 | 11 | 188 | 3.2 | 4.8 | 0.00 | 0.00 | 0.00 | 90 | 1021.0 |
| 20260507064931 | 11 | 184 | 3.2 | 6.4 | 0.00 | 0.00 | 0.00 | 90 | 1021.0 |
| 20260507064428 | 11 | 170 | 3.2 | 6.4 | 0.00 | 0.00 | 0.00 | 90 | 1021.0 |
| 20260507063930 | 11 | 202 | 0.0 | 3.2 | 0.00 | 0.00 | 0.00 | 90 | 1021.0 |
| 20260507063429 | 11 | 235 | 1.6 | 4.8 | 0.00 | 0.00 | 0.00 | 90 | 1021.0 |
| 20260507062926 | 11 | 206 | 0.0 | 1.6 | 0.00 | 0.00 | 0.00 | 90 | 1021.0 |
| 20260507062426 | 11 | 213 | 1.6 | 3.2 | 0.00 | 0.00 | 0.00 | 90 | 1021.0 |
| 20260507061927 | 11 | 185 | 3.2 | 4.8 | 0.00 | 0.00 | 0.00 | 90 | 1021.0 |
| 20260507061428 | 11 | 190 | 3.2 | 4.8 | 0.00 | 0.00 | 0.00 | 90 | 1021.0 |
| 20260507060927 | 11 | 164 | 3.2 | 4.8 | 0.00 | 0.00 | 0.00 | 90 | 1021.0 |
| 20260507060427 | 11 | 183 | 1.6 | 3.2 | 0.00 | 0.00 | 0.00 | 90 | 1021.0 |
| 20260507055926 | 11 | 201 | 1.6 | 3.2 | 0.00 | 0.00 | 0.00 | 90 | 1021.0 |
| 20260507055427 | 11 | 225 | 1.6 | 3.2 | 0.00 | 0.00 | 0.00 | 90 | 1021.0 |
| 20260507054927 | 11 | 178 | 4.8 | 6.4 | 0.00 | 0.00 | 0.00 | 90 | 1021.0 |
| 20260507054426 | 11 | 150 | 4.8 | 8.0 | 0.00 | 0.00 | 0.00 | 90 | 1021.0 |
| 20260507053927 | 11 | 234 | 1.6 | 3.2 | 0.00 | 0.00 | 0.00 | 90 | 1021.0 |
| 20260507053429 | 11 | 225 | 0.0 | 1.6 | 0.00 | 0.00 | 0.00 | 90 | 1021.0 |
| 20260507052926 | 11 | 250 | 1.6 | 4.8 | 0.00 | 0.00 | 0.00 | 90 | 1021.0 |
| 20260507052428 | 11 | 236 | 3.2 | 4.8 | 0.00 | 0.00 | 0.00 | 90 | 1021.0 |
| 20260507051926 | 11 | 204 | 1.6 | 3.2 | 0.00 | 0.00 | 0.00 | 90 | 1021.0 |
| 20260507051426 | 11 | 220 | 1.6 | 3.2 | 0.00 | 0.00 | 0.00 | 90 | 1021.0 |
| 20260507050926 | 11 | 198 | 1.6 | 3.2 | 0.00 | 0.00 | 0.00 | 90 | 1021.0 |
| 20260507050427 | 11 | 15 | 0.0 | 1.6 | 0.00 | 0.00 | 0.00 | 90 | 1021.0 |
| 20260507045926 | 11 | 174 | 1.6 | 3.2 | 0.00 | 0.00 | 0.00 | 89 | 1021.0 |
| 20260507045428 | 11 | 335 | 0.0 | 1.6 | 0.00 | 0.00 | 0.00 | 89 | 1021.0 |
| 20260507044926 | 11 | 89 | 0.0 | 1.6 | 0.00 | 0.00 | 0.00 | 89 | 1021.0 |
| 20260507044426 | 11 | 186 | 1.6 | 3.2 | 0.00 | 0.00 | 0.00 | 89 | 1021.0 |
| 20260507043927 | 11 | 293 | 0.0 | 1.6 | 0.00 | 0.00 | 0.00 | 88 | 1021.0 |
| 20260507042942 | 11 | 162 | 1.6 | 3.2 | 0.00 | 0.00 | 0.00 | 88 | 1021.0 |
| 20260507042426 | 11 | 245 | 1.6 | 3.2 | 0.00 | 0.00 | 0.00 | 87 | 1021.0 |
| 20260507041927 | 11 | 179 | 1.6 | 3.2 | 0.00 | 0.00 | 0.00 | 87 | 1021.0 |
| 20260507041426 | 11 | 192 | 3.2 | 6.4 | 0.00 | 0.00 | 0.00 | 87 | 1021.0 |
| 20260507040927 | 12 | 186 | 3.2 | 6.4 | 0.00 | 0.00 | 0.00 | 86 | 1021.0 |
| 20260507040426 | 12 | 212 | 3.2 | 6.4 | 0.00 | 0.00 | 0.00 | 86 | 1021.0 |
| 20260507035927 | 12 | 181 | 3.2 | 4.8 | 0.00 | 0.00 | 0.00 | 86 | 1021.0 |
| 20260507035427 | 12 | 180 | 3.2 | 6.4 | 0.00 | 0.00 | 0.00 | 85 | 1020.0 |
| 20260507034926 | 12 | 195 | 1.6 | 3.2 | 0.00 | 0.00 | 0.00 | 85 | 1020.0 |
| 20260507034427 | 12 | 206 | 1.6 | 3.2 | 0.00 | 0.00 | 0.00 | 85 | 1020.0 |
| 20260507033926 | 12 | 198 | 3.2 | 9.7 | 0.00 | 0.00 | 0.00 | 84 | 1020.0 |
| 20260507033427 | 12 | 201 | 1.6 | 3.2 | 0.00 | 0.00 | 0.00 | 84 | 1020.0 |
| 20260507032927 | 12 | 200 | 6.4 | 8.0 | 0.00 | 0.00 | 0.00 | 83 | 1020.0 |
| 20260507032428 | 12 | 185 | 3.2 | 6.4 | 0.00 | 0.00 | 0.00 | 83 | 1020.0 |
| 20260507031926 | 12 | 207 | 0.0 | 3.2 | 0.00 | 0.00 | 0.00 | 83 | 1020.0 |
| 20260507031428 | 12 | 239 | 1.6 | 3.2 | 0.00 | 0.00 | 0.00 | 82 | 1020.0 |
| 20260507030928 | 12 | 183 | 6.4 | 11.3 | 0.00 | 0.00 | 0.00 | 82 | 1020.0 |
| 20260507030427 | 12 | 204 | 3.2 | 4.8 | 0.00 | 0.00 | 0.00 | 81 | 1020.0 |
| 20260507025928 | 12 | 187 | 4.8 | 6.4 | 0.00 | 0.00 | 0.00 | 81 | 1020.0 |
| 20260507025426 | 12 | 212 | 3.2 | 3.2 | 0.00 | 0.00 | 0.00 | 81 | 1020.0 |
| 20260507024927 | 13 | 196 | 3.2 | 6.4 | 0.00 | 0.00 | 0.00 | 80 | 1020.0 |
| 20260507024428 | 13 | 204 | 3.2 | 6.4 | 0.00 | 0.00 | 0.00 | 80 | 1020.0 |
| 20260507023929 | 13 | 193 | 3.2 | 6.4 | 0.00 | 0.00 | 0.00 | 80 | 1020.0 |
| 20260507023427 | 13 | 210 | 3.2 | 3.2 | 0.00 | 0.00 | 0.00 | 79 | 1020.0 |
| 20260507022930 | 13 | 211 | 3.2 | 9.7 | 0.00 | 0.00 | 0.00 | 79 | 1020.0 |
| 20260507022426 | 13 | 211 | 4.8 | 6.4 | 0.00 | 0.00 | 0.00 | 78 | 1020.0 |
| 20260507021928 | 13 | 204 | 3.2 | 8.0 | 0.00 | 0.00 | 0.00 | 78 | 1020.0 |
| 20260507021433 | 13 | 193 | 3.2 | 6.4 | 0.00 | 0.00 | 0.00 | 78 | 1020.0 |
| 20260507020928 | 13 | 207 | 1.6 | 3.2 | 0.00 | 0.00 | 0.00 | 77 | 1020.0 |
| 20260507020429 | 13 | 202 | 3.2 | 6.4 | 0.00 | 0.00 | 0.00 | 77 | 1020.0 |
| 20260507015926 | 13 | 212 | 3.2 | 4.8 | 0.00 | 0.00 | 0.00 | 77 | 1020.0 |
| 20260507015428 | 13 | 190 | 3.2 | 4.8 | 0.00 | 0.00 | 0.00 | 76 | 1020.0 |
| 20260507014927 | 13 | 206 | 4.8 | 6.4 | 0.00 | 0.00 | 0.00 | 76 | 1020.0 |
| 20260507014427 | 13 | 226 | 1.6 | 3.2 | 0.00 | 0.00 | 0.00 | 76 | 1020.0 |
| 20260507013927 | 13 | 166 | 3.2 | 4.8 | 0.00 | 0.00 | 0.00 | 76 | 1020.0 |
| 20260507013428 | 13 | 161 | 6.4 | 12.9 | 0.00 | 0.00 | 0.00 | 75 | 1020.0 |
| 20260507012927 | 13 | 184 | 4.8 | 6.4 | 0.00 | 0.00 | 0.00 | 76 | 1020.0 |
| 20260507012431 | 13 | 221 | 1.6 | 1.6 | 0.00 | 0.00 | 0.00 | 75 | 1020.0 |
| 20260507011928 | 14 | 185 | 3.2 | 6.4 | 0.00 | 0.00 | 0.00 | 75 | 1020.0 |
| 20260507011426 | 14 | 174 | 4.8 | 8.0 | 0.00 | 0.00 | 0.00 | 75 | 1020.0 |
| 20260507010928 | 14 | 172 | 8.0 | 12.9 | 0.00 | 0.00 | 0.00 | 75 | 1020.0 |
| 20260507010428 | 14 | 164 | 3.2 | 8.0 | 0.00 | 0.00 | 0.00 | 75 | 1020.0 |
| 20260507005929 | 14 | 279 | 1.6 | 3.2 | 0.00 | 0.00 | 0.00 | 75 | 1020.0 |
| 20260507005428 | 14 | 185 | 6.4 | 12.9 | 0.00 | 0.00 | 0.00 | 75 | 1020.0 |
| 20260507004927 | 14 | 188 | 4.8 | 8.0 | 0.00 | 0.00 | 0.00 | 75 | 1020.0 |
| 20260507004426 | 14 | 161 | 8.0 | 9.7 | 0.00 | 0.00 | 0.00 | 75 | 1020.0 |
| 20260507003927 | 14 | 211 | 6.4 | 9.7 | 0.00 | 0.00 | 0.00 | 74 | 1020.0 |
| 20260507003426 | 14 | 170 | 6.4 | 12.9 | 0.00 | 0.00 | 0.00 | 75 | 1020.0 |
| 20260507002928 | 14 | 170 | 9.7 | 12.9 | 0.00 | 0.00 | 0.00 | 74 | 1020.0 |
| 20260507002428 | 14 | 164 | 9.7 | 12.9 | 0.00 | 0.00 | 0.00 | 74 | 1020.0 |
| 20260507001927 | 14 | 174 | 3.2 | 8.0 | 0.00 | 0.00 | 0.00 | 75 | 1020.0 |
| 20260507001427 | 14 | 186 | 6.4 | 9.7 | 0.00 | 0.00 | 0.00 | 74 | 1020.0 |
| 20260507000926 | 14 | 185 | 8.0 | 9.7 | 0.00 | 0.00 | 0.00 | 75 | 1020.0 |
| 20260507000427 | 14 | 187 | 3.2 | 6.4 | 0.00 | 0.00 | 0.00 | 76 | 1020.0 |
| 20260506235927 | 14 | 175 | 9.7 | 12.9 | 0.00 | 0.00 | 0.00 | 75 | 1020.0 |
| 20260506235426 | 14 | 182 | 8.0 | 11.3 | 0.00 | 0.00 | 0.00 | 75 | 1020.0 |
| 20260506234927 | 14 | 246 | 0.0 | 1.6 | 0.00 | 0.00 | 0.00 | 76 | 1020.0 |
| 20260506234426 | 14 | 189 | 3.2 | 4.8 | 0.00 | 0.00 | 0.00 | 76 | 1020.0 |
| 20260506233453 | 14 | 176 | 6.4 | 11.3 | 0.00 | 0.00 | 0.00 | 75 | 1020.0 |
| 20260506232926 | 14 | 198 | 6.4 | 12.9 | 0.00 | 0.00 | 0.00 | 74 | 1020.0 |
| 20260506232426 | 14 | 183 | 8.0 | 14.5 | 0.00 | 0.00 | 0.00 | 74 | 1020.0 |
| 20260506231927 | 14 | 185 | 6.4 | 11.3 | 0.00 | 0.00 | 0.00 | 75 | 1020.0 |
| 20260506231428 | 14 | 273 | 4.8 | 8.0 | 0.00 | 0.00 | 0.00 | 74 | 1020.0 |
| 20260506230927 | 14 | 173 | 8.0 | 14.5 | 0.00 | 0.00 | 0.00 | 74 | 1020.0 |
| 20260506230426 | 14 | 183 | 9.7 | 17.7 | 0.00 | 0.00 | 0.00 | 73 | 1020.0 |
| 20260506225452 | 14 | 214 | 4.8 | 6.4 | 0.00 | 0.00 | 0.00 | 74 | 1020.0 |
| 20260506224928 | 14 | 242 | 4.8 | 11.3 | 0.00 | 0.00 | 0.00 | 75 | 1020.0 |
| 20260506224426 | 14 | 213 | 1.6 | 3.2 | 0.00 | 0.00 | 0.00 | 77 | 1020.0 |
| 20260506223929 | 14 | 212 | 6.4 | 14.5 | 0.00 | 0.00 | 0.00 | 74 | 1020.0 |
| 20260506223428 | 14 | 178 | 4.8 | 11.3 | 0.00 | 0.00 | 0.00 | 75 | 1020.0 |
| 20260506222927 | 13 | 182 | 3.2 | 6.4 | 0.00 | 0.00 | 0.00 | 76 | 1020.0 |
| 20260506222426 | 13 | 176 | 8.0 | 11.3 | 0.00 | 0.00 | 0.00 | 75 | 1020.0 |
| 20260506221926 | 13 | 205 | 4.8 | 6.4 | 0.00 | 0.00 | 0.00 | 75 | 1020.0 |
| 20260506221428 | 13 | 177 | 4.8 | 8.0 | 0.00 | 0.00 | 0.00 | 76 | 1020.0 |
| 20260506220928 | 13 | 212 | 1.6 | 3.2 | 0.00 | 0.00 | 0.00 | 76 | 1021.0 |
| 20260506220428 | 13 | 197 | 3.2 | 6.4 | 0.00 | 0.00 | 0.00 | 76 | 1021.0 |
| 20260506215928 | 13 | 203 | 3.2 | 4.8 | 0.00 | 0.00 | 0.00 | 77 | 1021.0 |
| 20260506215427 | 13 | 192 | 8.0 | 12.9 | 0.00 | 0.00 | 0.00 | 75 | 1020.0 |
| 20260506214928 | 13 | 262 | 1.6 | 4.8 | 0.00 | 0.00 | 0.00 | 77 | 1020.0 |
| 20260506214426 | 13 | 194 | 3.2 | 6.4 | 0.00 | 0.00 | 0.00 | 76 | 1021.0 |
| 20260506213929 | 13 | 204 | 4.8 | 8.0 | 0.00 | 0.00 | 0.00 | 76 | 1021.0 |
| 20260506213426 | 13 | 200 | 6.4 | 12.9 | 0.00 | 0.00 | 0.00 | 76 | 1021.0 |
| 20260506212927 | 13 | 235 | 3.2 | 8.0 | 0.00 | 0.00 | 0.00 | 76 | 1021.0 |
| 20260506212428 | 13 | 192 | 3.2 | 9.7 | 0.00 | 0.00 | 0.00 | 76 | 1021.0 |
| 20260506211926 | 13 | 218 | 4.8 | 6.4 | 0.00 | 0.00 | 0.00 | 76 | 1021.0 |
| 20260506211427 | 13 | 183 | 9.7 | 12.9 | 0.00 | 0.00 | 0.00 | 75 | 1020.0 |
| 20260506210927 | 13 | 171 | 8.0 | 9.7 | 0.00 | 0.00 | 0.00 | 75 | 1020.0 |
| 20260506210429 | 13 | 214 | 3.2 | 8.0 | 0.00 | 0.00 | 0.00 | 75 | 1020.0 |
| 20260506205927 | 13 | 197 | 6.4 | 12.9 | 0.00 | 0.00 | 0.00 | 75 | 1020.0 |
| 20260506205426 | 13 | 191 | 6.4 | 12.9 | 0.00 | 0.00 | 0.00 | 75 | 1020.0 |
| 20260506204927 | 13 | 196 | 11.3 | 14.5 | 0.00 | 0.00 | 0.00 | 74 | 1020.0 |
| 20260506204426 | 13 | 217 | 4.8 | 8.0 | 0.00 | 0.00 | 0.00 | 74 | 1020.0 |
| 20260506203928 | 13 | 200 | 1.6 | 3.2 | 0.00 | 0.00 | 0.00 | 75 | 1021.0 |
| 20260506203426 | 13 | 271 | 3.2 | 11.3 | 0.00 | 0.00 | 0.00 | 75 | 1020.0 |
| 20260506202929 | 13 | 212 | 3.2 | 6.4 | 0.00 | 0.00 | 0.00 | 74 | 1020.0 |
| 20260506202426 | 13 | 291 | 0.0 | 3.2 | 0.00 | 0.00 | 0.00 | 74 | 1020.0 |
| 20260506201930 | 13 | 210 | 6.4 | 9.7 | 0.00 | 0.00 | 0.00 | 73 | 1020.0 |
| 20260506201430 | 13 | 194 | 6.4 | 9.7 | 0.00 | 0.00 | 0.00 | 74 | 1020.0 |
| 20260506200930 | 13 | 192 | 8.0 | 12.9 | 0.00 | 0.00 | 0.00 | 74 | 1021.0 |
| 20260506200426 | 13 | 207 | 8.0 | 9.7 | 0.00 | 0.00 | 0.00 | 74 | 1021.0 |
| 20260506195926 | 13 | 199 | 6.4 | 9.7 | 0.00 | 0.00 | 0.00 | 74 | 1020.0 |
| 20260506195427 | 13 | 203 | 6.4 | 9.7 | 0.00 | 0.00 | 0.00 | 74 | 1020.0 |
| 20260506194928 | 13 | 204 | 4.8 | 6.4 | 0.00 | 0.00 | 0.00 | 75 | 1020.0 |
| 20260506194426 | 13 | 196 | 9.7 | 14.5 | 0.00 | 0.00 | 0.00 | 74 | 1020.0 |
| 20260506193928 | 13 | 217 | 6.4 | 9.7 | 0.00 | 0.00 | 0.00 | 75 | 1020.0 |
| 20260506193429 | 13 | 226 | 3.2 | 8.0 | 0.00 | 0.00 | 0.00 | 76 | 1020.0 |
| 20260506192928 | 12 | 186 | 8.0 | 12.9 | 0.00 | 0.00 | 0.00 | 76 | 1020.0 |
| 20260506192429 | 12 | 207 | 4.8 | 8.0 | 0.00 | 0.00 | 0.00 | 76 | 1020.0 |
| 20260506191928 | 12 | 213 | 6.4 | 11.3 | 0.00 | 0.00 | 0.00 | 76 | 1020.0 |
| 20260506191430 | 12 | 175 | 6.4 | 11.3 | 0.00 | 0.00 | 0.00 | 76 | 1020.0 |
| 20260506190927 | 13 | 201 | 8.0 | 12.9 | 0.00 | 0.00 | 0.00 | 76 | 1020.0 |
| 20260506190434 | 13 | 241 | 3.2 | 9.7 | 0.00 | 0.00 | 0.00 | 76 | 1020.0 |
| 20260506185927 | 13 | 205 | 6.4 | 8.0 | 0.00 | 0.00 | 0.00 | 75 | 1020.0 |
| 20260506185426 | 13 | 210 | 6.4 | 12.9 | 0.00 | 0.00 | 0.00 | 75 | 1020.0 |
| 20260506184930 | 13 | 187 | 6.4 | 11.3 | 0.00 | 0.00 | 0.00 | 73 | 1020.0 |
| 20260506184429 | 13 | 182 | 4.8 | 11.3 | 0.00 | 0.00 | 0.00 | 75 | 1021.0 |
| 20260506183930 | 13 | 187 | 3.2 | 8.0 | 0.00 | 0.00 | 0.00 | 75 | 1021.0 |
| 20260506183428 | 13 | 268 | 4.8 | 8.0 | 0.00 | 0.00 | 0.00 | 76 | 1020.0 |
| 20260506182928 | 13 | 205 | 6.4 | 11.3 | 0.00 | 0.00 | 0.00 | 75 | 1020.0 |
| 20260506182428 | 13 | 200 | 9.7 | 12.9 | 0.00 | 0.00 | 0.00 | 75 | 1020.0 |
| 20260506181927 | 13 | 243 | 6.4 | 11.3 | 0.00 | 0.00 | 0.00 | 75 | 1020.0 |
| 20260506181427 | 13 | 212 | 4.8 | 12.9 | 0.00 | 0.00 | 0.00 | 75 | 1020.0 |
| 20260506180926 | 13 | 194 | 6.4 | 14.5 | 0.00 | 0.00 | 0.00 | 75 | 1020.0 |
| 20260506180427 | 13 | 246 | 3.2 | 6.4 | 0.00 | 0.00 | 0.00 | 77 | 1020.0 |
| 20260506175926 | 13 | 241 | 3.2 | 6.4 | 0.00 | 0.00 | 0.00 | 77 | 1020.0 |
| 20260506175428 | 13 | 205 | 4.8 | 8.0 | 0.00 | 0.00 | 0.00 | 76 | 1020.0 |
| 20260506174929 | 12 | 249 | 3.2 | 9.7 | 0.00 | 0.00 | 0.00 | 78 | 1020.0 |
| 20260506174427 | 12 | 202 | 9.7 | 12.9 | 0.00 | 0.00 | 0.00 | 78 | 1020.0 |
| 20260506173929 | 12 | 239 | 3.2 | 8.0 | 0.00 | 0.00 | 0.00 | 80 | 1020.0 |
| 20260506173428 | 12 | 204 | 8.0 | 11.3 | 0.00 | 0.00 | 0.00 | 80 | 1020.0 |
| 20260506172927 | 12 | 202 | 6.4 | 11.3 | 0.00 | 0.00 | 0.00 | 81 | 1020.0 |
| 20260506172428 | 12 | 241 | 6.4 | 11.3 | 0.00 | 0.00 | 0.00 | 81 | 1020.0 |
| 20260506171928 | 12 | 197 | 1.6 | 4.8 | 0.00 | 0.00 | 0.00 | 82 | 1020.0 |
| 20260506171430 | 12 | 266 | 3.2 | 4.8 | 0.00 | 0.00 | 0.00 | 81 | 1020.0 |
| 20260506170926 | 12 | 185 | 6.4 | 11.3 | 0.00 | 0.00 | 0.00 | 82 | 1020.0 |
| 20260506170429 | 12 | 194 | 6.4 | 9.7 | 0.00 | 0.00 | 0.00 | 84 | 1020.0 |
| 20260506165929 | 11 | 211 | 6.4 | 9.7 | 0.00 | 0.00 | 0.00 | 84 | 1020.0 |
| 20260506165429 | 11 | 212 | 3.2 | 6.4 | 0.00 | 0.00 | 0.00 | 85 | 1020.0 |
| 20260506164927 | 11 | 215 | 3.2 | 6.4 | 0.00 | 0.00 | 0.00 | 87 | 1020.0 |
| 20260506164430 | 11 | 211 | 1.6 | 3.2 | 0.00 | 0.00 | 0.00 | 88 | 1020.0 |
| 20260506163931 | 11 | 206 | 4.8 | 8.0 | 0.00 | 0.00 | 0.00 | 87 | 1020.0 |
| 20260506163427 | 12 | 190 | 4.8 | 9.7 | 0.00 | 0.00 | 0.00 | 87 | 1020.0 |
| 20260506162928 | 12 | 250 | 1.6 | 4.8 | 0.00 | 0.00 | 0.00 | 87 | 1020.0 |
| 20260506162427 | 11 | 211 | 6.4 | 9.7 | 0.00 | 0.00 | 0.00 | 87 | 1020.0 |
| 20260506161928 | 11 | 179 | 8.0 | 14.5 | 0.00 | 0.00 | 0.00 | 87 | 1020.0 |
| 20260506161431 | 11 | 201 | 4.8 | 6.4 | 0.00 | 0.00 | 0.00 | 87 | 1019.0 |
| 20260506160927 | 11 | 210 | 4.8 | 9.7 | 0.00 | 0.00 | 0.00 | 88 | 1020.0 |
| 20260506160428 | 11 | 226 | 3.2 | 6.4 | 0.00 | 0.00 | 0.00 | 88 | 1019.0 |
| 20260506155929 | 11 | 183 | 6.4 | 8.0 | 0.00 | 0.00 | 0.00 | 89 | 1019.0 |
| 20260506155431 | 11 | 223 | 4.8 | 8.0 | 0.00 | 0.00 | 0.00 | 89 | 1019.0 |
| 20260506154931 | 11 | 181 | 6.4 | 9.7 | 0.00 | 0.00 | 0.00 | 89 | 1019.0 |
| 20260506154428 | 11 | 211 | 8.0 | 11.3 | 0.00 | 0.00 | 0.00 | 90 | 1019.0 |
| 20260506153931 | 11 | 178 | 6.4 | 11.3 | 0.00 | 0.00 | 0.00 | 91 | 1019.0 |
| 20260506153428 | 11 | 169 | 4.8 | 9.7 | 0.00 | 0.00 | 0.00 | 91 | 1020.0 |
| 20260506152928 | 11 | 176 | 6.4 | 9.7 | 0.00 | 0.00 | 0.00 | 90 | 1019.0 |
| 20260506152427 | 11 | 185 | 4.8 | 9.7 | 0.00 | 0.00 | 0.00 | 90 | 1020.0 |
| 20260506151929 | 11 | 188 | 4.8 | 8.0 | 0.00 | 0.00 | 0.00 | 91 | 1020.0 |
| 20260506151429 | 11 | 183 | 3.2 | 6.4 | 0.00 | 0.00 | 0.00 | 91 | 1020.0 |
| 20260506150930 | 11 | 227 | 3.2 | 6.4 | 0.00 | 0.00 | 0.00 | 91 | 1020.0 |
| 20260506150430 | 11 | 191 | 3.2 | 6.4 | 0.00 | 0.00 | 0.00 | 91 | 1020.0 |
| 20260506145931 | 11 | 203 | 3.2 | 4.8 | 0.00 | 0.00 | 0.00 | 91 | 1020.0 |
| 20260506145429 | 11 | 186 | 1.6 | 3.2 | 0.00 | 0.00 | 0.00 | 92 | 1019.0 |
| 20260506144931 | 11 | 196 | 3.2 | 6.4 | 0.00 | 0.00 | 0.00 | 92 | 1019.0 |
| 20260506144431 | 11 | 189 | 3.2 | 9.7 | 0.00 | 0.00 | 0.00 | 92 | 1019.0 |
| 20260506143931 | 11 | 190 | 4.8 | 6.4 | 0.00 | 0.00 | 0.00 | 92 | 1019.0 |
| 20260506143432 | 11 | 157 | 3.2 | 4.8 | 0.00 | 0.00 | 0.00 | 92 | 1019.0 |
| 20260506142929 | 11 | 199 | 3.2 | 6.4 | 0.00 | 0.00 | 0.00 | 92 | 1019.0 |
| 20260506142430 | 11 | 191 | 6.4 | 8.0 | 0.00 | 0.00 | 0.00 | 92 | 1019.0 |
| 20260506141928 | 11 | 189 | 3.2 | 4.8 | 0.00 | 0.00 | 0.00 | 92 | 1019.0 |
| 20260506141426 | 11 | 259 | 0.0 | 3.2 | 0.00 | 0.00 | 0.00 | 92 | 1019.0 |
| 20260506140927 | 10 | 202 | 3.2 | 4.8 | 0.00 | 0.00 | 0.00 | 92 | 1019.0 |
| 20260506140428 | 10 | 253 | 1.6 | 3.2 | 0.00 | 0.00 | 0.00 | 92 | 1019.0 |
| 20260506135929 | 10 | 207 | 1.6 | 3.2 | 0.00 | 0.00 | 0.00 | 92 | 1019.0 |
| 20260506135427 | 10 | 167 | 4.8 | 6.4 | 0.00 | 0.00 | 0.00 | 92 | 1019.0 |
| 20260506134927 | 10 | 160 | 3.2 | 4.8 | 0.00 | 0.00 | 0.00 | 92 | 1019.0 |
| 20260506134430 | 10 | 197 | 1.6 | 4.8 | 0.00 | 0.00 | 0.00 | 92 | 1019.0 |
| 20260506133926 | 10 | 200 | 1.6 | 3.2 | 0.00 | 0.00 | 0.00 | 92 | 1019.0 |
| 20260506133428 | 10 | 183 | 1.6 | 3.2 | 0.00 | 0.00 | 0.00 | 92 | 1019.0 |
| 20260506132928 | 10 | 195 | 4.8 | 6.4 | 0.00 | 0.00 | 0.00 | 92 | 1019.0 |
| 20260506132005 | 10 | 210 | 1.6 | 4.8 | 0.00 | 0.00 | 0.00 | 92 | 1019.0 |
| 20260506131427 | 10 | 214 | 1.6 | 3.2 | 0.00 | 0.00 | 0.00 | 93 | 1019.0 |
| 20260506130927 | 10 | 169 | 4.8 | 8.0 | 0.00 | 0.00 | 0.00 | 93 | 1019.0 |
| 20260506130430 | 10 | 184 | 3.2 | 9.7 | 0.00 | 0.00 | 0.00 | 93 | 1019.0 |
| 20260506125928 | 10 | 168 | 1.6 | 6.4 | 0.00 | 0.00 | 0.00 | 93 | 1019.0 |
| 20260506125429 | 10 | 233 | 1.6 | 4.8 | 0.00 | 0.00 | 0.00 | 93 | 1019.0 |
| 20260506124928 | 10 | 175 | 3.2 | 4.8 | 0.00 | 0.00 | 0.00 | 93 | 1018.0 |
| 20260506124426 | 10 | 178 | 3.2 | 4.8 | 0.00 | 0.00 | 0.00 | 93 | 1019.0 |
| 20260506123926 | 10 | 187 | 3.2 | 3.2 | 0.00 | 0.00 | 0.00 | 93 | 1019.0 |
| 20260506123428 | 10 | 203 | 1.6 | 4.8 | 0.00 | 0.00 | 0.00 | 93 | 1018.0 |
| 20260506122928 | 10 | 170 | 1.6 | 3.2 | 0.00 | 0.00 | 0.00 | 93 | 1018.0 |
| 20260506122430 | 10 | 186 | 3.2 | 6.4 | 0.00 | 0.00 | 0.00 | 93 | 1018.0 |
| 20260506121931 | 10 | 200 | 1.6 | 3.2 | 0.00 | 0.00 | 0.00 | 92 | 1018.0 |
| 20260506121427 | 11 | 195 | 3.2 | 4.8 | 0.00 | 0.00 | 0.00 | 92 | 1018.0 |
| 20260506120929 | 11 | 178 | 6.4 | 11.3 | 0.00 | 0.00 | 0.00 | 91 | 1018.0 |
| 20260506120430 | 11 | 191 | 3.2 | 4.8 | 0.00 | 0.00 | 0.00 | 91 | 1018.0 |
| 20260506115929 | 11 | 197 | 3.2 | 6.4 | 0.00 | 0.00 | 0.00 | 91 | 1018.0 |
| 20260506115429 | 11 | 201 | 3.2 | 6.4 | 0.00 | 0.00 | 0.00 | 91 | 1018.0 |
| 20260506114928 | 11 | 193 | 4.8 | 6.4 | 0.00 | 0.00 | 0.00 | 90 | 1018.0 |
| 20260506114428 | 11 | 236 | 0.0 | 3.2 | 0.00 | 0.00 | 0.00 | 90 | 1018.0 |
| 20260506113927 | 11 | 198 | 3.2 | 4.8 | 0.00 | 0.00 | 0.00 | 90 | 1018.0 |
| 20260506113427 | 11 | 276 | 1.6 | 3.2 | 0.00 | 0.00 | 0.00 | 90 | 1018.0 |
| 20260506112929 | 11 | 0 | 0.0 | 0.0 | 0.00 | 0.00 | 0.00 | 90 | 1018.0 |
| 20260506112427 | 11 | 224 | 1.6 | 4.8 | 0.00 | 0.00 | 0.00 | 90 | 1018.0 |
| 20260506111930 | 11 | 182 | 3.2 | 4.8 | 0.00 | 0.00 | 0.00 | 90 | 1018.0 |
| 20260506111429 | 11 | 177 | 3.2 | 4.8 | 0.00 | 0.00 | 0.00 | 90 | 1018.0 |
| 20260506110928 | 11 | 206 | 1.6 | 3.2 | 0.00 | 0.00 | 0.00 | 90 | 1018.0 |
| 20260506110428 | 11 | 143 | 4.8 | 6.4 | 0.00 | 0.00 | 0.00 | 90 | 1018.0 |
| 20260506105928 | 11 | 168 | 3.2 | 4.8 | 0.00 | 0.00 | 0.00 | 90 | 1018.0 |
| 20260506105426 | 11 | 257 | 4.8 | 6.4 | 0.00 | 0.00 | 0.00 | 90 | 1018.0 |
| 20260506104928 | 11 | 144 | 3.2 | 4.8 | 0.00 | 0.00 | 0.00 | 90 | 1018.0 |
| 20260506104432 | 11 | 188 | 4.8 | 8.0 | 0.00 | 0.00 | 0.00 | 90 | 1018.0 |
| 20260506103928 | 11 | 212 | 0.0 | 1.6 | 0.00 | 0.00 | 0.00 | 90 | 1018.0 |
| 20260506103429 | 11 | 203 | 1.6 | 1.6 | 0.00 | 0.00 | 0.00 | 90 | 1018.0 |
| 20260506102928 | 11 | 191 | 3.2 | 6.4 | 0.00 | 0.00 | 0.00 | 90 | 1018.0 |
| 20260506102429 | 11 | 213 | 1.6 | 3.2 | 0.00 | 0.00 | 0.00 | 90 | 1018.0 |
| 20260506101928 | 11 | 169 | 0.0 | 1.6 | 0.00 | 0.00 | 0.00 | 90 | 1018.0 |
| 20260506101430 | 11 | 238 | 1.6 | 3.2 | 0.00 | 0.00 | 0.00 | 90 | 1018.0 |
| 20260506100927 | 11 | 210 | 4.8 | 8.0 | 0.00 | 0.00 | 0.00 | 91 | 1018.0 |
| 20260506100429 | 11 | 356 | 0.0 | 1.6 | 0.00 | 0.00 | 0.00 | 91 | 1018.0 |
| 20260506095926 | 11 | 232 | 0.0 | 1.6 | 0.00 | 0.00 | 0.00 | 91 | 1018.0 |
| 20260506095427 | 11 | 210 | 0.0 | 1.6 | 0.00 | 0.00 | 0.00 | 91 | 1018.0 |
| 20260506094928 | 11 | 135 | 1.6 | 3.2 | 0.00 | 0.00 | 0.00 | 91 | 1018.0 |
| 20260506094427 | 11 | 182 | 3.2 | 3.2 | 0.00 | 0.00 | 0.00 | 91 | 1018.0 |
| 20260506093926 | 10 | 212 | 0.0 | 1.6 | 0.00 | 0.00 | 0.00 | 92 | 1018.0 |
| 20260506093427 | 10 | 134 | 0.0 | 1.6 | 0.00 | 0.00 | 0.00 | 92 | 1017.0 |
| 20260506092926 | 10 | 183 | 0.0 | 1.6 | 0.00 | 0.00 | 0.00 | 92 | 1017.0 |
| 20260506092426 | 10 | 177 | 1.6 | 4.8 | 0.00 | 0.00 | 0.00 | 93 | 1018.0 |
| 20260506091928 | 10 | 174 | 1.6 | 3.2 | 0.00 | 0.00 | 0.00 | 93 | 1018.0 |
| 20260506091429 | 10 | 189 | 1.6 | 3.2 | 0.00 | 0.00 | 0.00 | 94 | 1018.0 |
| 20260506090928 | 10 | 185 | 1.6 | 3.2 | 0.00 | 0.00 | 0.00 | 94 | 1017.0 |
| 20260506090427 | 10 | 253 | 0.0 | 3.2 | 0.00 | 0.00 | 0.00 | 95 | 1017.0 |
| 20260506085928 | 10 | 157 | 1.6 | 3.2 | 0.00 | 0.00 | 0.00 | 95 | 1017.0 |